sensor_id;sensor_type;location;lat;lon;timestamp;pressure;altitude;pressure_sealevel;temperature;humidity
30618;BME280;17384;51.214;9.202;2024-02-04T00:02:22;99229.44;;;7.96;100.00
30618;BME280;17384;51.214;9.202;2024-02-04T00:04:50;99224.78;;;8.05;100.00
30618;BME280;17384;51.214;9.202;2024-02-04T00:07:16;99210.44;;;8.04;100.00
30618;BME280;17384;51.214;9.202;2024-02-04T00:09:41;99205.03;;;8.04;100.00
30618;BME280;17384;51.214;9.202;2024-02-04T00:12:09;99216.84;;;8.03;100.00
30618;BME280;17384;51.214;9.202;2024-02-04T00:14:34;99204.75;;;7.99;100.00
30618;BME280;17384;51.214;9.202;2024-02-04T00:17:00;99211.13;;;7.92;100.00
30618;BME280;17384;51.214;9.202;2024-02-04T00:19:25;99214.19;;;7.89;100.00
30618;BME280;17384;51.214;9.202;2024-02-04T00:21:51;99198.63;;;7.91;100.00
30618;BME280;17384;51.214;9.202;2024-02-04T00:24:17;99203.19;;;7.90;100.00
30618;BME280;17384;51.214;9.202;2024-02-04T00:26:44;99199.28;;;7.93;100.00
30618;BME280;17384;51.214;9.202;2024-02-04T00:29:10;99182.25;;;7.92;100.00
30618;BME280;17384;51.214;9.202;2024-02-04T00:31:35;99189.69;;;7.90;100.00
30618;BME280;17384;51.214;9.202;2024-02-04T00:34:00;99180.56;;;7.91;100.00
30618;BME280;17384;51.214;9.202;2024-02-04T00:36:26;99181.59;;;7.90;100.00
30618;BME280;17384;51.214;9.202;2024-02-04T00:38:52;99176.25;;;7.97;100.00
30618;BME280;17384;51.214;9.202;2024-02-04T00:41:17;99174.75;;;7.94;100.00
30618;BME280;17384;51.214;9.202;2024-02-04T00:43:43;99178.75;;;7.98;100.00
30618;BME280;17384;51.214;9.202;2024-02-04T00:46:08;99195.06;;;8.05;100.00
30618;BME280;17384;51.214;9.202;2024-02-04T00:48:36;99196.19;;;7.96;100.00
30618;BME280;17384;51.214;9.202;2024-02-04T00:51:01;99198.78;;;8.04;100.00
30618;BME280;17384;51.214;9.202;2024-02-04T00:53:27;99193.16;;;8.20;100.00
30618;BME280;17384;51.214;9.202;2024-02-04T00:55:59;99205.19;;;8.18;100.00
30618;BME280;17384;51.214;9.202;2024-02-04T00:58:25;99197.50;;;8.21;100.00
30618;BME280;17384;51.214;9.202;2024-02-04T01:00:50;99198.31;;;8.15;100.00
30618;BME280;17384;51.214;9.202;2024-02-04T01:03:16;99200.53;;;8.11;100.00
30618;BME280;17384;51.214;9.202;2024-02-04T01:05:41;99195.13;;;8.11;100.00
30618;BME280;17384;51.214;9.202;2024-02-04T01:08:06;99188.97;;;8.18;100.00
30618;BME280;17384;51.214;9.202;2024-02-04T01:10:32;99171.09;;;8.17;100.00
30618;BME280;17384;51.214;9.202;2024-02-04T01:12:57;99174.47;;;8.25;100.00
30618;BME280;17384;51.214;9.202;2024-02-04T01:15:23;99162.19;;;8.37;100.00
30618;BME280;17384;51.214;9.202;2024-02-04T01:17:48;99168.13;;;8.47;99.63
30618;BME280;17384;51.214;9.202;2024-02-04T01:20:13;99191.09;;;8.37;99.55
30618;BME280;17384;51.214;9.202;2024-02-04T01:22:39;99181.56;;;8.41;98.92
30618;BME280;17384;51.214;9.202;2024-02-04T01:25:05;99176.72;;;8.36;99.40
30618;BME280;17384;51.214;9.202;2024-02-04T01:27:31;99183.09;;;8.50;98.86
30618;BME280;17384;51.214;9.202;2024-02-04T01:29:57;99191.34;;;8.63;98.12
30618;BME280;17384;51.214;9.202;2024-02-04T01:32:22;99190.63;;;8.55;98.57
30618;BME280;17384;51.214;9.202;2024-02-04T01:34:47;99185.59;;;8.52;98.51
30618;BME280;17384;51.214;9.202;2024-02-04T01:37:13;99182.97;;;8.58;98.91
30618;BME280;17384;51.214;9.202;2024-02-04T01:39:38;99177.75;;;8.57;98.44
30618;BME280;17384;51.214;9.202;2024-02-04T01:42:04;99178.47;;;8.65;98.84
30618;BME280;17384;51.214;9.202;2024-02-04T01:44:30;99171.25;;;8.72;98.32
30618;BME280;17384;51.214;9.202;2024-02-04T01:46:56;99176.34;;;8.61;98.30
30618;BME280;17384;51.214;9.202;2024-02-04T01:49:22;99181.44;;;8.70;98.23
30618;BME280;17384;51.214;9.202;2024-02-04T01:51:48;99167.53;;;8.73;97.77
30618;BME280;17384;51.214;9.202;2024-02-04T01:54:13;99163.19;;;8.58;97.96
30618;BME280;17384;51.214;9.202;2024-02-04T01:56:39;99168.75;;;8.71;98.19
30618;BME280;17384;51.214;9.202;2024-02-04T01:59:05;99175.63;;;8.73;98.01
30618;BME280;17384;51.214;9.202;2024-02-04T02:01:31;99170.56;;;8.64;98.26
30618;BME280;17384;51.214;9.202;2024-02-04T02:03:57;99160.25;;;8.74;97.73
30618;BME280;17384;51.214;9.202;2024-02-04T02:06:23;99158.97;;;8.70;97.79
30618;BME280;17384;51.214;9.202;2024-02-04T02:08:49;99163.81;;;8.81;97.66
30618;BME280;17384;51.214;9.202;2024-02-04T02:14:08;99177.09;;;8.76;97.75
30618;BME280;17384;51.214;9.202;2024-02-04T02:16:36;99160.25;;;8.74;98.05
30618;BME280;17384;51.214;9.202;2024-02-04T02:19:19;99163.44;;;8.84;97.69
30618;BME280;17384;51.214;9.202;2024-02-04T02:22:00;99165.09;;;8.85;97.52
30618;BME280;17384;51.214;9.202;2024-02-04T02:26:55;99164.63;;;8.75;98.33
30618;BME280;17384;51.214;9.202;2024-02-04T02:29:24;99171.84;;;8.68;98.33
30618;BME280;17384;51.214;9.202;2024-02-04T02:31:49;99174.66;;;8.81;97.82
30618;BME280;17384;51.214;9.202;2024-02-04T02:34:15;99183.78;;;8.80;98.00
30618;BME280;17384;51.214;9.202;2024-02-04T02:36:44;99172.97;;;8.80;98.00
30618;BME280;17384;51.214;9.202;2024-02-04T02:39:17;99191.81;;;8.67;98.58
30618;BME280;17384;51.214;9.202;2024-02-04T02:41:44;99184.81;;;8.79;98.27
30618;BME280;17384;51.214;9.202;2024-02-04T02:44:14;99187.53;;;8.79;98.24
30618;BME280;17384;51.214;9.202;2024-02-04T02:46:41;99190.84;;;8.74;98.99
30618;BME280;17384;51.214;9.202;2024-02-04T02:49:07;99183.88;;;8.65;99.71
30618;BME280;17384;51.214;9.202;2024-02-04T02:51:33;99165.78;;;8.66;100.00
30618;BME280;17384;51.214;9.202;2024-02-04T02:53:58;99157.78;;;8.58;100.00
30618;BME280;17384;51.214;9.202;2024-02-04T02:56:24;99158.38;;;8.53;100.00
30618;BME280;17384;51.214;9.202;2024-02-04T02:58:49;99150.00;;;8.48;100.00
30618;BME280;17384;51.214;9.202;2024-02-04T03:01:15;99146.22;;;8.42;100.00
30618;BME280;17384;51.214;9.202;2024-02-04T03:03:40;99137.84;;;8.37;100.00
30618;BME280;17384;51.214;9.202;2024-02-04T03:06:05;99135.03;;;8.31;100.00
30618;BME280;17384;51.214;9.202;2024-02-04T03:08:31;99133.84;;;8.33;100.00
30618;BME280;17384;51.214;9.202;2024-02-04T03:10:57;99137.75;;;8.31;100.00
30618;BME280;17384;51.214;9.202;2024-02-04T03:13:22;99145.03;;;8.30;100.00
30618;BME280;17384;51.214;9.202;2024-02-04T03:15:48;99132.19;;;8.32;100.00
30618;BME280;17384;51.214;9.202;2024-02-04T03:18:13;99127.50;;;8.26;100.00
30618;BME280;17384;51.214;9.202;2024-02-04T03:20:39;99125.84;;;8.25;100.00
30618;BME280;17384;51.214;9.202;2024-02-04T03:23:04;99116.69;;;8.26;100.00
30618;BME280;17384;51.214;9.202;2024-02-04T03:25:30;99130.84;;;8.28;100.00
30618;BME280;17384;51.214;9.202;2024-02-04T03:27:55;99118.38;;;8.27;100.00
30618;BME280;17384;51.214;9.202;2024-02-04T03:30:21;99121.25;;;8.26;100.00
30618;BME280;17384;51.214;9.202;2024-02-04T03:32:47;99106.88;;;8.19;100.00
30618;BME280;17384;51.214;9.202;2024-02-04T03:35:12;99108.47;;;8.13;100.00
30618;BME280;17384;51.214;9.202;2024-02-04T03:37:37;99102.63;;;8.09;100.00
30618;BME280;17384;51.214;9.202;2024-02-04T03:40:03;99109.44;;;8.05;100.00
30618;BME280;17384;51.214;9.202;2024-02-04T03:42:29;99105.25;;;8.03;100.00
30618;BME280;17384;51.214;9.202;2024-02-04T03:44:55;99091.72;;;8.03;100.00
30618;BME280;17384;51.214;9.202;2024-02-04T03:47:20;99093.13;;;7.99;100.00
30618;BME280;17384;51.214;9.202;2024-02-04T03:49:46;99099.19;;;8.01;100.00
30618;BME280;17384;51.214;9.202;2024-02-04T03:52:11;99093.78;;;8.01;100.00
30618;BME280;17384;51.214;9.202;2024-02-04T03:54:37;99095.66;;;8.00;100.00
30618;BME280;17384;51.214;9.202;2024-02-04T03:57:02;99099.56;;;7.98;100.00
30618;BME280;17384;51.214;9.202;2024-02-04T03:59:28;99102.09;;;7.99;100.00
30618;BME280;17384;51.214;9.202;2024-02-04T04:01:53;99113.91;;;7.98;100.00
30618;BME280;17384;51.214;9.202;2024-02-04T04:04:20;99091.66;;;7.96;100.00
30618;BME280;17384;51.214;9.202;2024-02-04T04:06:46;99086.06;;;7.98;100.00
30618;BME280;17384;51.214;9.202;2024-02-04T04:09:12;99103.28;;;7.97;100.00
30618;BME280;17384;51.214;9.202;2024-02-04T04:11:37;99097.31;;;8.01;100.00
30618;BME280;17384;51.214;9.202;2024-02-04T04:14:03;99086.06;;;7.98;100.00
30618;BME280;17384;51.214;9.202;2024-02-04T04:16:28;99084.84;;;8.00;100.00
30618;BME280;17384;51.214;9.202;2024-02-04T04:18:54;99091.09;;;8.01;100.00
30618;BME280;17384;51.214;9.202;2024-02-04T04:21:20;99101.63;;;7.96;100.00
30618;BME280;17384;51.214;9.202;2024-02-04T04:23:45;99085.94;;;8.06;100.00
30618;BME280;17384;51.214;9.202;2024-02-04T04:26:11;99094.88;;;8.06;100.00
30618;BME280;17384;51.214;9.202;2024-02-04T04:28:36;99078.03;;;8.04;100.00
30618;BME280;17384;51.214;9.202;2024-02-04T04:31:02;99089.03;;;8.03;100.00
30618;BME280;17384;51.214;9.202;2024-02-04T04:33:27;99077.75;;;7.99;100.00
30618;BME280;17384;51.214;9.202;2024-02-04T04:35:52;99080.53;;;8.06;100.00
30618;BME280;17384;51.214;9.202;2024-02-04T04:38:18;99072.81;;;8.03;100.00
30618;BME280;17384;51.214;9.202;2024-02-04T04:40:43;99070.03;;;7.96;100.00
30618;BME280;17384;51.214;9.202;2024-02-04T04:43:09;99077.56;;;8.01;100.00
30618;BME280;17384;51.214;9.202;2024-02-04T04:45:34;99074.41;;;7.97;100.00
30618;BME280;17384;51.214;9.202;2024-02-04T04:48:00;99064.81;;;7.95;100.00
30618;BME280;17384;51.214;9.202;2024-02-04T04:50:25;99048.25;;;7.98;100.00
30618;BME280;17384;51.214;9.202;2024-02-04T04:52:51;99040.31;;;7.96;100.00
30618;BME280;17384;51.214;9.202;2024-02-04T04:55:16;99057.75;;;7.94;100.00
30618;BME280;17384;51.214;9.202;2024-02-04T04:57:41;99055.69;;;7.96;100.00
30618;BME280;17384;51.214;9.202;2024-02-04T05:00:07;99059.56;;;8.08;100.00
30618;BME280;17384;51.214;9.202;2024-02-04T05:02:36;99055.88;;;7.94;100.00
30618;BME280;17384;51.214;9.202;2024-02-04T05:05:01;99069.63;;;7.93;100.00
30618;BME280;17384;51.214;9.202;2024-02-04T05:07:27;99074.59;;;7.96;100.00
30618;BME280;17384;51.214;9.202;2024-02-04T05:09:52;99082.72;;;7.96;100.00
30618;BME280;17384;51.214;9.202;2024-02-04T05:12:18;99068.81;;;7.99;100.00
30618;BME280;17384;51.214;9.202;2024-02-04T05:14:44;99074.09;;;8.07;100.00
30618;BME280;17384;51.214;9.202;2024-02-04T05:17:09;99067.38;;;8.18;100.00
30618;BME280;17384;51.214;9.202;2024-02-04T05:19:35;99073.59;;;8.18;100.00
30618;BME280;17384;51.214;9.202;2024-02-04T05:22:01;99064.22;;;8.14;100.00
30618;BME280;17384;51.214;9.202;2024-02-04T05:24:27;99071.84;;;8.32;100.00
30618;BME280;17384;51.214;9.202;2024-02-04T05:26:52;99067.13;;;8.34;100.00
30618;BME280;17384;51.214;9.202;2024-02-04T05:29:17;99066.53;;;8.38;100.00
30618;BME280;17384;51.214;9.202;2024-02-04T05:31:43;99061.41;;;8.29;100.00
30618;BME280;17384;51.214;9.202;2024-02-04T05:34:12;99068.69;;;8.28;100.00
30618;BME280;17384;51.214;9.202;2024-02-04T05:36:37;99059.84;;;8.34;100.00
30618;BME280;17384;51.214;9.202;2024-02-04T05:39:14;99071.78;;;8.25;100.00
30618;BME280;17384;51.214;9.202;2024-02-04T05:41:41;99067.03;;;8.27;100.00
30618;BME280;17384;51.214;9.202;2024-02-04T05:44:07;99054.69;;;8.18;100.00
30618;BME280;17384;51.214;9.202;2024-02-04T05:46:37;99056.38;;;8.19;100.00
30618;BME280;17384;51.214;9.202;2024-02-04T05:49:03;99068.19;;;8.18;100.00
30618;BME280;17384;51.214;9.202;2024-02-04T05:51:28;99056.28;;;8.12;100.00
30618;BME280;17384;51.214;9.202;2024-02-04T05:53:54;99064.97;;;8.08;100.00
30618;BME280;17384;51.214;9.202;2024-02-04T05:56:20;99064.72;;;8.03;100.00
30618;BME280;17384;51.214;9.202;2024-02-04T05:58:46;99046.25;;;8.06;100.00
30618;BME280;17384;51.214;9.202;2024-02-04T06:01:12;99054.25;;;8.14;100.00
30618;BME280;17384;51.214;9.202;2024-02-04T06:03:37;99066.66;;;8.09;100.00
30618;BME280;17384;51.214;9.202;2024-02-04T06:06:03;99070.06;;;8.18;100.00
30618;BME280;17384;51.214;9.202;2024-02-04T06:08:29;99054.88;;;8.17;100.00
30618;BME280;17384;51.214;9.202;2024-02-04T06:10:55;99059.06;;;8.19;100.00
30618;BME280;17384;51.214;9.202;2024-02-04T06:13:20;99056.94;;;8.14;100.00
30618;BME280;17384;51.214;9.202;2024-02-04T06:15:46;99057.59;;;8.17;100.00
30618;BME280;17384;51.214;9.202;2024-02-04T06:18:11;99041.44;;;8.44;100.00
30618;BME280;17384;51.214;9.202;2024-02-04T06:20:37;99050.97;;;8.40;100.00
30618;BME280;17384;51.214;9.202;2024-02-04T06:23:02;99040.44;;;8.52;100.00
30618;BME280;17384;51.214;9.202;2024-02-04T06:25:28;99040.03;;;8.55;100.00
30618;BME280;17384;51.214;9.202;2024-02-04T06:27:53;99032.19;;;8.60;100.00
30618;BME280;17384;51.214;9.202;2024-02-04T06:30:19;99033.00;;;8.61;100.00
30618;BME280;17384;51.214;9.202;2024-02-04T06:32:44;99042.94;;;8.54;100.00
30618;BME280;17384;51.214;9.202;2024-02-04T06:35:13;99041.47;;;8.51;100.00
30618;BME280;17384;51.214;9.202;2024-02-04T06:37:41;99042.84;;;8.40;100.00
30618;BME280;17384;51.214;9.202;2024-02-04T06:40:06;99039.78;;;8.50;100.00
30618;BME280;17384;51.214;9.202;2024-02-04T06:42:32;99057.53;;;8.59;100.00
30618;BME280;17384;51.214;9.202;2024-02-04T06:44:57;99065.47;;;8.61;100.00
30618;BME280;17384;51.214;9.202;2024-02-04T06:47:23;99077.38;;;8.66;100.00
30618;BME280;17384;51.214;9.202;2024-02-04T06:49:48;99075.88;;;8.64;100.00
30618;BME280;17384;51.214;9.202;2024-02-04T06:52:14;99078.72;;;8.56;100.00
30618;BME280;17384;51.214;9.202;2024-02-04T06:54:39;99064.56;;;8.54;100.00
30618;BME280;17384;51.214;9.202;2024-02-04T06:57:04;99077.13;;;8.61;100.00
30618;BME280;17384;51.214;9.202;2024-02-04T06:59:30;99071.19;;;8.72;100.00
30618;BME280;17384;51.214;9.202;2024-02-04T07:01:55;99078.69;;;8.77;100.00
30618;BME280;17384;51.214;9.202;2024-02-04T07:04:21;99063.91;;;8.73;100.00
30618;BME280;17384;51.214;9.202;2024-02-04T07:06:50;99074.09;;;8.71;100.00
30618;BME280;17384;51.214;9.202;2024-02-04T07:09:16;99057.09;;;8.56;100.00
30618;BME280;17384;51.214;9.202;2024-02-04T07:11:41;99059.03;;;8.62;100.00
30618;BME280;17384;51.214;9.202;2024-02-04T07:14:07;99056.75;;;8.65;100.00
30618;BME280;17384;51.214;9.202;2024-02-04T07:16:33;99058.50;;;8.79;99.27
30618;BME280;17384;51.214;9.202;2024-02-04T07:18:59;99065.59;;;8.80;98.48
30618;BME280;17384;51.214;9.202;2024-02-04T07:21:24;99048.09;;;8.76;98.27
30618;BME280;17384;51.214;9.202;2024-02-04T07:23:50;99056.84;;;8.78;97.95
30618;BME280;17384;51.214;9.202;2024-02-04T07:26:15;99056.44;;;8.81;98.05
30618;BME280;17384;51.214;9.202;2024-02-04T07:28:41;99061.28;;;8.86;97.58
30618;BME280;17384;51.214;9.202;2024-02-04T07:31:07;99052.97;;;8.88;97.37
30618;BME280;17384;51.214;9.202;2024-02-04T07:33:32;99069.44;;;8.93;97.18
30618;BME280;17384;51.214;9.202;2024-02-04T07:35:58;99057.03;;;8.77;97.64
30618;BME280;17384;51.214;9.202;2024-02-04T07:38:23;99060.75;;;8.69;96.77
30618;BME280;17384;51.214;9.202;2024-02-04T07:40:48;99056.06;;;8.85;95.13
30618;BME280;17384;51.214;9.202;2024-02-04T07:43:14;99063.28;;;8.77;94.59
30618;BME280;17384;51.214;9.202;2024-02-04T07:45:39;99059.16;;;8.81;94.36
30618;BME280;17384;51.214;9.202;2024-02-04T07:48:05;99049.81;;;8.84;94.66
30618;BME280;17384;51.214;9.202;2024-02-04T07:50:30;99048.63;;;8.93;94.30
30618;BME280;17384;51.214;9.202;2024-02-04T07:52:56;99054.53;;;8.75;94.88
30618;BME280;17384;51.214;9.202;2024-02-04T07:55:21;99051.88;;;8.82;94.81
30618;BME280;17384;51.214;9.202;2024-02-04T07:57:47;99061.41;;;8.78;94.40
30618;BME280;17384;51.214;9.202;2024-02-04T08:00:12;99053.31;;;8.78;93.93
30618;BME280;17384;51.214;9.202;2024-02-04T08:02:38;99039.88;;;8.91;92.39
30618;BME280;17384;51.214;9.202;2024-02-04T08:05:05;99040.66;;;8.85;93.13
30618;BME280;17384;51.214;9.202;2024-02-04T08:07:31;99047.84;;;8.99;91.86
30618;BME280;17384;51.214;9.202;2024-02-04T08:09:57;99027.47;;;9.10;91.20
30618;BME280;17384;51.214;9.202;2024-02-04T08:12:22;99042.72;;;9.18;90.84
30618;BME280;17384;51.214;9.202;2024-02-04T08:14:48;99035.63;;;9.16;91.08
30618;BME280;17384;51.214;9.202;2024-02-04T08:17:14;99023.78;;;9.18;89.91
30618;BME280;17384;51.214;9.202;2024-02-04T08:19:39;99026.28;;;9.19;89.05
30618;BME280;17384;51.214;9.202;2024-02-04T08:22:05;99013.59;;;9.20;89.28
30618;BME280;17384;51.214;9.202;2024-02-04T08:24:32;99011.50;;;9.22;89.05
30618;BME280;17384;51.214;9.202;2024-02-04T08:26:58;99015.91;;;9.23;89.14
30618;BME280;17384;51.214;9.202;2024-02-04T08:29:24;99016.31;;;9.26;88.78
30618;BME280;17384;51.214;9.202;2024-02-04T08:31:50;99024.66;;;9.25;88.31
30618;BME280;17384;51.214;9.202;2024-02-04T08:34:15;99024.63;;;9.18;88.86
30618;BME280;17384;51.214;9.202;2024-02-04T08:36:41;99036.28;;;9.19;88.80
30618;BME280;17384;51.214;9.202;2024-02-04T08:39:06;99038.31;;;9.10;90.47
30618;BME280;17384;51.214;9.202;2024-02-04T08:41:32;99039.09;;;8.97;90.73
30618;BME280;17384;51.214;9.202;2024-02-04T08:43:57;99044.16;;;9.13;90.53
30618;BME280;17384;51.214;9.202;2024-02-04T08:46:23;99025.81;;;9.09;91.01
30618;BME280;17384;51.214;9.202;2024-02-04T08:48:48;99054.03;;;8.93;93.03
30618;BME280;17384;51.214;9.202;2024-02-04T08:51:14;99061.56;;;8.98;93.49
30618;BME280;17384;51.214;9.202;2024-02-04T08:53:41;99065.69;;;8.94;94.57
30618;BME280;17384;51.214;9.202;2024-02-04T08:56:08;99060.72;;;8.97;95.02
30618;BME280;17384;51.214;9.202;2024-02-04T08:58:34;99058.28;;;9.09;94.06
30618;BME280;17384;51.214;9.202;2024-02-04T09:01:02;99052.75;;;8.89;96.07
30618;BME280;17384;51.214;9.202;2024-02-04T09:03:27;99065.00;;;8.85;96.75
30618;BME280;17384;51.214;9.202;2024-02-04T09:05:53;99065.25;;;8.90;96.75
30618;BME280;17384;51.214;9.202;2024-02-04T09:08:18;99055.03;;;8.86;97.69
30618;BME280;17384;51.214;9.202;2024-02-04T09:10:44;99028.81;;;8.86;98.30
30618;BME280;17384;51.214;9.202;2024-02-04T09:13:09;99048.13;;;8.83;98.47
30618;BME280;17384;51.214;9.202;2024-02-04T09:15:35;99056.06;;;8.85;98.35
30618;BME280;17384;51.214;9.202;2024-02-04T09:18:00;99053.00;;;8.94;98.52
30618;BME280;17384;51.214;9.202;2024-02-04T09:20:25;99054.47;;;8.97;98.81
30618;BME280;17384;51.214;9.202;2024-02-04T09:22:51;99048.69;;;9.06;98.69
30618;BME280;17384;51.214;9.202;2024-02-04T09:25:17;99057.13;;;8.90;99.24
30618;BME280;17384;51.214;9.202;2024-02-04T09:27:42;99055.91;;;8.93;99.93
30618;BME280;17384;51.214;9.202;2024-02-04T09:30:08;99046.03;;;9.13;99.06
30618;BME280;17384;51.214;9.202;2024-02-04T09:32:34;99048.22;;;8.96;99.75
30618;BME280;17384;51.214;9.202;2024-02-04T09:35:00;99031.41;;;9.07;99.57
30618;BME280;17384;51.214;9.202;2024-02-04T09:37:26;99042.88;;;9.09;98.70
30618;BME280;17384;51.214;9.202;2024-02-04T09:39:51;99039.78;;;9.12;98.98
30618;BME280;17384;51.214;9.202;2024-02-04T09:42:20;99044.16;;;9.13;99.12
30618;BME280;17384;51.214;9.202;2024-02-04T09:44:48;99049.53;;;9.07;99.02
30618;BME280;17384;51.214;9.202;2024-02-04T09:47:14;99055.81;;;9.14;98.13
30618;BME280;17384;51.214;9.202;2024-02-04T09:49:40;99047.06;;;9.12;98.83
30618;BME280;17384;51.214;9.202;2024-02-04T09:52:09;99039.56;;;9.14;98.05
30618;BME280;17384;51.214;9.202;2024-02-04T09:54:45;99042.16;;;9.29;95.89
30618;BME280;17384;51.214;9.202;2024-02-04T09:57:12;99037.13;;;9.19;97.04
30618;BME280;17384;51.214;9.202;2024-02-04T09:59:39;99046.31;;;9.25;96.99
30618;BME280;17384;51.214;9.202;2024-02-04T10:02:04;99056.50;;;9.23;97.35
30618;BME280;17384;51.214;9.202;2024-02-04T10:04:30;99061.47;;;9.19;97.89
30618;BME280;17384;51.214;9.202;2024-02-04T10:06:56;99050.88;;;9.31;97.66
30618;BME280;17384;51.214;9.202;2024-02-04T10:09:22;99041.94;;;9.24;98.93
30618;BME280;17384;51.214;9.202;2024-02-04T10:11:47;99041.72;;;9.32;100.00
30618;BME280;17384;51.214;9.202;2024-02-04T10:14:13;99050.25;;;9.22;100.00
30618;BME280;17384;51.214;9.202;2024-02-04T10:16:39;99041.44;;;9.13;100.00
30618;BME280;17384;51.214;9.202;2024-02-04T10:19:05;99036.03;;;9.13;100.00
30618;BME280;17384;51.214;9.202;2024-02-04T10:21:31;99045.00;;;9.14;100.00
30618;BME280;17384;51.214;9.202;2024-02-04T10:23:56;99041.06;;;9.16;100.00
30618;BME280;17384;51.214;9.202;2024-02-04T10:26:22;99032.28;;;9.14;100.00
30618;BME280;17384;51.214;9.202;2024-02-04T10:28:48;99023.81;;;9.24;100.00
30618;BME280;17384;51.214;9.202;2024-02-04T10:31:14;99038.19;;;9.25;100.00
30618;BME280;17384;51.214;9.202;2024-02-04T10:33:40;99041.13;;;9.36;100.00
30618;BME280;17384;51.214;9.202;2024-02-04T10:36:06;99036.56;;;9.37;100.00
30618;BME280;17384;51.214;9.202;2024-02-04T10:38:32;99040.09;;;9.37;99.20
30618;BME280;17384;51.214;9.202;2024-02-04T10:41:00;99032.56;;;9.26;98.25
30618;BME280;17384;51.214;9.202;2024-02-04T10:43:32;99039.91;;;9.39;97.34
30618;BME280;17384;51.214;9.202;2024-02-04T10:46:01;99039.66;;;9.34;96.18
30618;BME280;17384;51.214;9.202;2024-02-04T10:48:34;99037.34;;;9.31;96.46
30618;BME280;17384;51.214;9.202;2024-02-04T10:51:12;99029.22;;;9.31;97.06
30618;BME280;17384;51.214;9.202;2024-02-04T10:53:41;99032.13;;;9.23;96.75
30618;BME280;17384;51.214;9.202;2024-02-04T10:56:19;99033.81;;;9.24;97.89
30618;BME280;17384;51.214;9.202;2024-02-04T10:58:47;99041.94;;;9.24;98.03
30618;BME280;17384;51.214;9.202;2024-02-04T11:01:13;99037.94;;;9.20;98.34
30618;BME280;17384;51.214;9.202;2024-02-04T11:03:40;99020.88;;;9.19;98.62
30618;BME280;17384;51.214;9.202;2024-02-04T11:06:07;99014.84;;;9.24;99.17
30618;BME280;17384;51.214;9.202;2024-02-04T11:08:34;99005.69;;;9.25;99.00
30618;BME280;17384;51.214;9.202;2024-02-04T11:11:00;99012.59;;;9.34;98.51
30618;BME280;17384;51.214;9.202;2024-02-04T11:13:26;99009.59;;;9.15;100.00
30618;BME280;17384;51.214;9.202;2024-02-04T11:15:53;99008.16;;;9.20;100.00
30618;BME280;17384;51.214;9.202;2024-02-04T11:21:40;99003.63;;;9.33;100.00
30618;BME280;17384;51.214;9.202;2024-02-04T11:24:33;98999.25;;;9.26;100.00
30618;BME280;17384;51.214;9.202;2024-02-04T11:27:03;98989.06;;;9.34;99.84
30618;BME280;17384;51.214;9.202;2024-02-04T11:29:28;98975.81;;;9.53;99.48
30618;BME280;17384;51.214;9.202;2024-02-04T11:31:54;98974.53;;;9.48;99.59
30618;BME280;17384;51.214;9.202;2024-02-04T11:34:20;98984.34;;;9.56;99.35
30618;BME280;17384;51.214;9.202;2024-02-04T11:36:45;98979.75;;;9.63;98.62
30618;BME280;17384;51.214;9.202;2024-02-04T11:39:15;98977.88;;;9.50;99.52
30618;BME280;17384;51.214;9.202;2024-02-04T11:41:50;98976.63;;;9.60;98.08
30618;BME280;17384;51.214;9.202;2024-02-04T11:44:23;98973.28;;;9.44;98.93
30618;BME280;17384;51.214;9.202;2024-02-04T11:46:49;98968.91;;;9.43;99.41
30618;BME280;17384;51.214;9.202;2024-02-04T11:49:15;98963.44;;;9.37;100.00
30618;BME280;17384;51.214;9.202;2024-02-04T11:51:47;98967.63;;;9.39;100.00
30618;BME280;17384;51.214;9.202;2024-02-04T11:54:15;98958.91;;;9.44;98.70
30618;BME280;17384;51.214;9.202;2024-02-04T11:56:41;98958.97;;;9.77;97.62
30618;BME280;17384;51.214;9.202;2024-02-04T11:59:07;98965.44;;;9.96;95.45
30618;BME280;17384;51.214;9.202;2024-02-04T12:01:33;98959.00;;;10.10;95.40
30618;BME280;17384;51.214;9.202;2024-02-04T12:06:38;98952.94;;;10.08;92.97
30618;BME280;17384;51.214;9.202;2024-02-04T12:09:03;98955.66;;;10.21;92.24
30618;BME280;17384;51.214;9.202;2024-02-04T12:11:29;98938.34;;;10.22;92.39
30618;BME280;17384;51.214;9.202;2024-02-04T12:13:55;98954.00;;;10.27;91.23
30618;BME280;17384;51.214;9.202;2024-02-04T12:16:21;98944.63;;;10.23;90.22
30618;BME280;17384;51.214;9.202;2024-02-04T12:18:48;98950.00;;;10.16;90.38
30618;BME280;17384;51.214;9.202;2024-02-04T12:21:14;98954.78;;;10.14;91.28
30618;BME280;17384;51.214;9.202;2024-02-04T12:23:40;98932.69;;;10.17;91.04
30618;BME280;17384;51.214;9.202;2024-02-04T12:26:05;98942.53;;;10.11;90.54
30618;BME280;17384;51.214;9.202;2024-02-04T12:28:31;98942.72;;;10.10;91.35
30618;BME280;17384;51.214;9.202;2024-02-04T12:30:56;98940.63;;;10.05;92.42
30618;BME280;17384;51.214;9.202;2024-02-04T12:33:23;98938.56;;;10.07;92.36
30618;BME280;17384;51.214;9.202;2024-02-04T12:38:17;98935.44;;;10.04;93.88
30618;BME280;17384;51.214;9.202;2024-02-04T12:40:45;98930.19;;;9.96;94.56
30618;BME280;17384;51.214;9.202;2024-02-04T12:43:11;98928.31;;;9.90;95.06
30618;BME280;17384;51.214;9.202;2024-02-04T12:45:37;98941.25;;;9.74;96.16
30618;BME280;17384;51.214;9.202;2024-02-04T12:48:03;98941.06;;;9.82;95.21
30618;BME280;17384;51.214;9.202;2024-02-04T12:50:29;98935.63;;;9.82;94.36
30618;BME280;17384;51.214;9.202;2024-02-04T12:53:05;98932.28;;;10.00;94.09
30618;BME280;17384;51.214;9.202;2024-02-04T12:55:32;98934.38;;;10.18;93.35
30618;BME280;17384;51.214;9.202;2024-02-04T12:58:11;98929.38;;;10.35;92.22
30618;BME280;17384;51.214;9.202;2024-02-04T13:00:40;98948.13;;;10.43;91.26
30618;BME280;17384;51.214;9.202;2024-02-04T13:03:06;98948.13;;;10.49;90.93
30618;BME280;17384;51.214;9.202;2024-02-04T13:05:36;98943.94;;;10.54;89.58
30618;BME280;17384;51.214;9.202;2024-02-04T13:08:02;98942.69;;;10.49;90.46
30618;BME280;17384;51.214;9.202;2024-02-04T13:10:31;98928.94;;;10.51;89.95
30618;BME280;17384;51.214;9.202;2024-02-04T13:13:03;98934.19;;;10.39;90.31
30618;BME280;17384;51.214;9.202;2024-02-04T13:15:31;98943.56;;;10.37;90.45